sensor_id;sensor_type;location;lat;lon;timestamp;P1;durP1;ratioP1;P2;durP2;ratioP2
43646;SDS011;56152;49.996;18.980;2023-04-19T00:04:38;30.45;;;20.80;;
43646;SDS011;56152;49.996;18.980;2023-04-19T00:09:43;29.30;;;22.48;;
43646;SDS011;56152;49.996;18.980;2023-04-19T00:14:48;35.55;;;21.50;;
43646;SDS011;56152;49.996;18.980;2023-04-19T00:19:50;33.78;;;24.33;;
43646;SDS011;56152;49.996;18.980;2023-04-19T00:24:53;32.53;;;21.90;;
43646;SDS011;56152;49.996;18.980;2023-04-19T00:29:58;27.70;;;21.27;;
43646;SDS011;56152;49.996;18.980;2023-04-19T00:35:00;30.13;;;21.98;;
43646;SDS011;56152;49.996;18.980;2023-04-19T00:40:05;33.55;;;22.42;;
43646;SDS011;56152;49.996;18.980;2023-04-19T00:45:11;32.80;;;22.02;;
43646;SDS011;56152;49.996;18.980;2023-04-19T00:50:13;32.92;;;23.48;;
43646;SDS011;56152;49.996;18.980;2023-04-19T00:55:16;28.45;;;22.40;;
43646;SDS011;56152;49.996;18.980;2023-04-19T01:00:22;38.90;;;26.65;;
43646;SDS011;56152;49.996;18.980;2023-04-19T01:05:24;46.13;;;32.22;;
43646;SDS011;56152;49.996;18.980;2023-04-19T01:10:26;40.78;;;26.13;;
43646;SDS011;56152;49.996;18.980;2023-04-19T01:15:33;31.02;;;22.70;;
43646;SDS011;56152;49.996;18.980;2023-04-19T01:20:36;32.25;;;22.73;;
43646;SDS011;56152;49.996;18.980;2023-04-19T01:25:40;30.13;;;21.63;;
43646;SDS011;56152;49.996;18.980;2023-04-19T01:30:47;30.13;;;22.17;;
43646;SDS011;56152;49.996;18.980;2023-04-19T01:35:50;32.92;;;24.00;;
43646;SDS011;56152;49.996;18.980;2023-04-19T01:40:55;31.17;;;22.08;;
43646;SDS011;56152;49.996;18.980;2023-04-19T01:45:58;37.75;;;23.92;;
43646;SDS011;56152;49.996;18.980;2023-04-19T01:51:06;31.60;;;23.30;;
43646;SDS011;56152;49.996;18.980;2023-04-19T01:56:10;31.67;;;21.75;;
43646;SDS011;56152;49.996;18.980;2023-04-19T02:01:13;30.25;;;23.13;;
43646;SDS011;56152;49.996;18.980;2023-04-19T02:06:14;30.42;;;22.15;;
43646;SDS011;56152;49.996;18.980;2023-04-19T02:11:19;27.50;;;19.90;;
43646;SDS011;56152;49.996;18.980;2023-04-19T02:16:21;31.92;;;22.88;;
43646;SDS011;56152;49.996;18.980;2023-04-19T02:21:26;32.42;;;22.75;;
43646;SDS011;56152;49.996;18.980;2023-04-19T02:26:31;31.63;;;23.15;;
43646;SDS011;56152;49.996;18.980;2023-04-19T02:31:34;26.80;;;20.05;;
43646;SDS011;56152;49.996;18.980;2023-04-19T02:36:37;36.00;;;26.38;;
43646;SDS011;56152;49.996;18.980;2023-04-19T02:41:40;29.23;;;21.48;;
43646;SDS011;56152;49.996;18.980;2023-04-19T02:46:47;27.33;;;20.33;;
43646;SDS011;56152;49.996;18.980;2023-04-19T02:51:49;32.42;;;24.25;;
43646;SDS011;56152;49.996;18.980;2023-04-19T02:56:53;26.92;;;19.35;;
43646;SDS011;56152;49.996;18.980;2023-04-19T03:01:56;36.88;;;25.55;;
43646;SDS011;56152;49.996;18.980;2023-04-19T03:06:58;28.65;;;20.83;;
43646;SDS011;56152;49.996;18.980;2023-04-19T03:12:02;37.15;;;21.02;;
43646;SDS011;56152;49.996;18.980;2023-04-19T03:17:05;41.17;;;23.58;;
43646;SDS011;56152;49.996;18.980;2023-04-19T03:22:07;34.55;;;25.70;;
43646;SDS011;56152;49.996;18.980;2023-04-19T03:27:11;29.48;;;21.48;;
43646;SDS011;56152;49.996;18.980;2023-04-19T03:32:13;26.73;;;19.52;;
43646;SDS011;56152;49.996;18.980;2023-04-19T03:37:15;30.75;;;23.00;;
43646;SDS011;56152;49.996;18.980;2023-04-19T03:42:19;28.58;;;20.05;;
43646;SDS011;56152;49.996;18.980;2023-04-19T03:47:20;27.05;;;20.13;;
43646;SDS011;56152;49.996;18.980;2023-04-19T03:52:23;29.23;;;21.48;;
43646;SDS011;56152;49.996;18.980;2023-04-19T03:57:28;28.95;;;19.33;;
43646;SDS011;56152;49.996;18.980;2023-04-19T04:02:30;29.00;;;19.77;;
43646;SDS011;56152;49.996;18.980;2023-04-19T04:07:32;36.72;;;24.52;;
43646;SDS011;56152;49.996;18.980;2023-04-19T04:12:37;27.88;;;19.73;;
43646;SDS011;56152;49.996;18.980;2023-04-19T04:17:38;29.70;;;20.77;;
43646;SDS011;56152;49.996;18.980;2023-04-19T04:22:42;35.80;;;25.27;;
43646;SDS011;56152;49.996;18.980;2023-04-19T04:27:49;41.30;;;27.10;;
43646;SDS011;56152;49.996;18.980;2023-04-19T04:32:51;44.08;;;31.33;;
43646;SDS011;56152;49.996;18.980;2023-04-19T04:37:57;41.78;;;30.23;;
43646;SDS011;56152;49.996;18.980;2023-04-19T04:43:01;40.30;;;26.25;;
43646;SDS011;56152;49.996;18.980;2023-04-19T04:48:05;30.95;;;20.67;;
43646;SDS011;56152;49.996;18.980;2023-04-19T04:53:12;28.65;;;20.88;;
43646;SDS011;56152;49.996;18.980;2023-04-19T04:58:16;29.58;;;21.38;;
43646;SDS011;56152;49.996;18.980;2023-04-19T05:03:19;25.52;;;18.17;;
43646;SDS011;56152;49.996;18.980;2023-04-19T05:08:24;28.05;;;20.63;;
43646;SDS011;56152;49.996;18.980;2023-04-19T05:13:29;32.85;;;23.95;;
43646;SDS011;56152;49.996;18.980;2023-04-19T05:18:32;44.05;;;26.67;;
43646;SDS011;56152;49.996;18.980;2023-04-19T05:23:34;40.63;;;28.50;;
43646;SDS011;56152;49.996;18.980;2023-04-19T05:28:39;30.73;;;21.88;;
43646;SDS011;56152;49.996;18.980;2023-04-19T05:33:41;21.20;;;17.27;;
43646;SDS011;56152;49.996;18.980;2023-04-19T05:38:43;27.65;;;20.98;;
43646;SDS011;56152;49.996;18.980;2023-04-19T05:43:47;27.90;;;19.95;;
43646;SDS011;56152;49.996;18.980;2023-04-19T05:48:48;24.75;;;17.15;;
43646;SDS011;56152;49.996;18.980;2023-04-19T05:53:52;26.65;;;18.42;;
43646;SDS011;56152;49.996;18.980;2023-04-19T05:58:56;28.52;;;19.48;;
43646;SDS011;56152;49.996;18.980;2023-04-19T06:04:01;24.15;;;17.50;;
43646;SDS011;56152;49.996;18.980;2023-04-19T06:09:04;20.73;;;15.48;;
43646;SDS011;56152;49.996;18.980;2023-04-19T06:14:09;31.35;;;22.52;;
43646;SDS011;56152;49.996;18.980;2023-04-19T06:19:11;23.92;;;17.30;;
43646;SDS011;56152;49.996;18.980;2023-04-19T06:24:13;26.27;;;18.98;;
43646;SDS011;56152;49.996;18.980;2023-04-19T06:29:20;21.30;;;16.60;;
43646;SDS011;56152;49.996;18.980;2023-04-19T06:34:23;20.63;;;14.73;;
43646;SDS011;56152;49.996;18.980;2023-04-19T06:39:25;22.55;;;17.15;;
43646;SDS011;56152;49.996;18.980;2023-04-19T06:44:29;33.25;;;24.35;;
43646;SDS011;56152;49.996;18.980;2023-04-19T06:49:32;27.27;;;21.00;;
43646;SDS011;56152;49.996;18.980;2023-04-19T06:54:37;22.23;;;17.23;;
43646;SDS011;56152;49.996;18.980;2023-04-19T06:59:41;24.48;;;18.05;;
43646;SDS011;56152;49.996;18.980;2023-04-19T07:04:43;25.52;;;17.77;;
43646;SDS011;56152;49.996;18.980;2023-04-19T07:09:49;19.35;;;15.43;;
43646;SDS011;56152;49.996;18.980;2023-04-19T07:14:53;17.23;;;14.60;;
43646;SDS011;56152;49.996;18.980;2023-04-19T07:19:56;11.98;;;10.25;;
43646;SDS011;56152;49.996;18.980;2023-04-19T07:24:58;10.45;;;9.07;;
43646;SDS011;56152;49.996;18.980;2023-04-19T07:30:02;12.43;;;10.27;;
43646;SDS011;56152;49.996;18.980;2023-04-19T07:35:07;11.75;;;9.93;;
43646;SDS011;56152;49.996;18.980;2023-04-19T07:40:15;12.85;;;8.48;;
43646;SDS011;56152;49.996;18.980;2023-04-19T07:45:20;9.30;;;8.30;;
43646;SDS011;56152;49.996;18.980;2023-04-19T07:50:25;10.00;;;8.80;;
43646;SDS011;56152;49.996;18.980;2023-04-19T07:55:27;10.63;;;8.98;;
43646;SDS011;56152;49.996;18.980;2023-04-19T08:00:33;11.50;;;9.30;;
43646;SDS011;56152;49.996;18.980;2023-04-19T08:05:36;8.38;;;7.10;;
43646;SDS011;56152;49.996;18.980;2023-04-19T08:10:42;8.18;;;7.25;;
43646;SDS011;56152;49.996;18.980;2023-04-19T08:15:47;9.25;;;7.43;;
43646;SDS011;56152;49.996;18.980;2023-04-19T08:20:51;12.85;;;10.32;;
43646;SDS011;56152;49.996;18.980;2023-04-19T08:25:54;7.15;;;5.75;;
43646;SDS011;56152;49.996;18.980;2023-04-19T08:30:58;10.52;;;8.23;;
43646;SDS011;56152;49.996;18.980;2023-04-19T08:36:00;12.52;;;9.43;;
43646;SDS011;56152;49.996;18.980;2023-04-19T08:41:02;12.38;;;8.38;;
43646;SDS011;56152;49.996;18.980;2023-04-19T08:46:07;7.57;;;6.07;;
43646;SDS011;56152;49.996;18.980;2023-04-19T08:51:11;7.63;;;5.82;;
43646;SDS011;56152;49.996;18.980;2023-04-19T08:56:15;13.77;;;6.15;;
43646;SDS011;56152;49.996;18.980;2023-04-19T09:01:22;7.15;;;4.80;;
43646;SDS011;56152;49.996;18.980;2023-04-19T09:06:24;8.10;;;4.60;;
43646;SDS011;56152;49.996;18.980;2023-04-19T09:11:34;10.68;;;5.57;;
43646;SDS011;56152;49.996;18.980;2023-04-19T09:16:39;14.38;;;6.82;;
43646;SDS011;56152;49.996;18.980;2023-04-19T09:21:42;35.60;;;10.60;;
43646;SDS011;56152;49.996;18.980;2023-04-19T09:26:52;15.75;;;9.73;;
43646;SDS011;56152;49.996;18.980;2023-04-19T09:31:58;9.23;;;5.90;;
43646;SDS011;56152;49.996;18.980;2023-04-19T09:37:10;14.55;;;8.25;;
43646;SDS011;56152;49.996;18.980;2023-04-19T09:42:13;14.63;;;7.13;;
43646;SDS011;56152;49.996;18.980;2023-04-19T09:47:24;18.42;;;8.50;;
43646;SDS011;56152;49.996;18.980;2023-04-19T09:52:29;15.52;;;7.72;;
43646;SDS011;56152;49.996;18.980;2023-04-19T09:57:35;14.27;;;7.32;;
43646;SDS011;56152;49.996;18.980;2023-04-19T10:02:40;14.50;;;7.68;;
43646;SDS011;56152;49.996;18.980;2023-04-19T10:07:49;11.32;;;7.05;;
43646;SDS011;56152;49.996;18.980;2023-04-19T10:12:56;11.50;;;6.28;;
43646;SDS011;56152;49.996;18.980;2023-04-19T10:18:01;14.38;;;8.35;;
43646;SDS011;56152;49.996;18.980;2023-04-19T10:23:06;13.77;;;7.32;;
43646;SDS011;56152;49.996;18.980;2023-04-19T10:28:09;8.15;;;4.57;;
43646;SDS011;56152;49.996;18.980;2023-04-19T10:33:13;9.48;;;6.72;;
43646;SDS011;56152;49.996;18.980;2023-04-19T10:38:35;8.48;;;5.72;;
43646;SDS011;56152;49.996;18.980;2023-04-19T10:43:42;16.83;;;10.90;;
43646;SDS011;56152;49.996;18.980;2023-04-19T10:48:55;16.95;;;12.15;;
43646;SDS011;56152;49.996;18.980;2023-04-19T10:53:59;11.38;;;8.32;;
43646;SDS011;56152;49.996;18.980;2023-04-19T10:59:15;15.18;;;9.77;;
43646;SDS011;56152;49.996;18.980;2023-04-19T11:10:01;15.32;;;9.82;;
43646;SDS011;56152;49.996;18.980;2023-04-19T11:15:04;13.43;;;9.80;;
43646;SDS011;56152;49.996;18.980;2023-04-19T11:20:10;15.15;;;10.25;;
43646;SDS011;56152;49.996;18.980;2023-04-19T11:25:14;14.73;;;10.70;;
43646;SDS011;56152;49.996;18.980;2023-04-19T11:30:18;14.85;;;9.52;;
43646;SDS011;56152;49.996;18.980;2023-04-19T11:35:23;16.70;;;11.40;;
43646;SDS011;56152;49.996;18.980;2023-04-19T11:40:26;16.08;;;11.38;;
43646;SDS011;56152;49.996;18.980;2023-04-19T11:45:28;20.63;;;15.38;;
43646;SDS011;56152;49.996;18.980;2023-04-19T11:50:34;25.15;;;15.75;;
43646;SDS011;56152;49.996;18.980;2023-04-19T11:55:37;16.83;;;12.98;;
43646;SDS011;56152;49.996;18.980;2023-04-19T12:00:45;22.63;;;15.25;;
43646;SDS011;56152;49.996;18.980;2023-04-19T12:05:54;15.95;;;12.23;;
43646;SDS011;56152;49.996;18.980;2023-04-19T12:10:59;19.42;;;13.38;;
43646;SDS011;56152;49.996;18.980;2023-04-19T12:16:05;18.33;;;12.65;;
43646;SDS011;56152;49.996;18.980;2023-04-19T12:21:10;20.73;;;14.25;;
43646;SDS011;56152;49.996;18.980;2023-04-19T12:26:23;21.52;;;13.20;;
43646;SDS011;56152;49.996;18.980;2023-04-19T12:31:31;18.15;;;13.85;;
43646;SDS011;56152;49.996;18.980;2023-04-19T12:36:35;19.38;;;14.85;;
43646;SDS011;56152;49.996;18.980;2023-04-19T12:41:37;17.88;;;14.85;;
43646;SDS011;56152;49.996;18.980;2023-04-19T12:46:42;22.48;;;15.38;;
43646;SDS011;56152;49.996;18.980;2023-04-19T12:51:45;20.83;;;16.15;;
43646;SDS011;56152;49.996;18.980;2023-04-19T12:56:47;25.15;;;18.10;;
43646;SDS011;56152;49.996;18.980;2023-04-19T13:01:53;31.50;;;21.23;;
43646;SDS011;56152;49.996;18.980;2023-04-19T13:06:57;24.42;;;17.90;;
43646;SDS011;56152;49.996;18.980;2023-04-19T13:12:00;29.35;;;19.98;;
43646;SDS011;56152;49.996;18.980;2023-04-19T13:17:02;32.10;;;20.40;;
43646;SDS011;56152;49.996;18.980;2023-04-19T13:22:07;30.42;;;20.08;;
43646;SDS011;56152;49.996;18.980;2023-04-19T13:27:09;31.38;;;21.73;;
43646;SDS011;56152;49.996;18.980;2023-04-19T13:32:11;35.35;;;21.67;;
43646;SDS011;56152;49.996;18.980;2023-04-19T13:37:17;31.35;;;21.27;;
43646;SDS011;56152;49.996;18.980;2023-04-19T13:42:32;33.80;;;22.55;;
43646;SDS011;56152;49.996;18.980;2023-04-19T13:47:35;34.72;;;25.30;;
43646;SDS011;56152;49.996;18.980;2023-04-19T13:52:39;38.25;;;24.85;;
43646;SDS011;56152;49.996;18.980;2023-04-19T13:57:41;50.08;;;30.08;;
43646;SDS011;56152;49.996;18.980;2023-04-19T14:02:45;37.95;;;24.23;;
43646;SDS011;56152;49.996;18.980;2023-04-19T14:07:49;35.10;;;25.17;;
43646;SDS011;56152;49.996;18.980;2023-04-19T14:12:51;30.52;;;21.88;;
43646;SDS011;56152;49.996;18.980;2023-04-19T14:17:54;36.25;;;23.17;;
43646;SDS011;56152;49.996;18.980;2023-04-19T14:22:59;33.00;;;25.13;;
43646;SDS011;56152;49.996;18.980;2023-04-19T14:28:02;36.72;;;24.63;;
43646;SDS011;56152;49.996;18.980;2023-04-19T14:33:05;32.58;;;23.35;;
43646;SDS011;56152;49.996;18.980;2023-04-19T14:38:09;25.73;;;21.40;;
43646;SDS011;56152;49.996;18.980;2023-04-19T14:43:13;27.38;;;22.20;;
43646;SDS011;56152;49.996;18.980;2023-04-19T14:48:16;23.95;;;17.98;;
43646;SDS011;56152;49.996;18.980;2023-04-19T14:53:24;29.85;;;21.60;;
43646;SDS011;56152;49.996;18.980;2023-04-19T14:58:25;27.88;;;21.58;;
43646;SDS011;56152;49.996;18.980;2023-04-19T15:03:27;20.90;;;14.93;;
43646;SDS011;56152;49.996;18.980;2023-04-19T15:08:32;25.75;;;20.65;;
43646;SDS011;56152;49.996;18.980;2023-04-19T15:13:37;28.13;;;20.48;;
43646;SDS011;56152;49.996;18.980;2023-04-19T15:18:39;25.02;;;19.15;;
43646;SDS011;56152;49.996;18.980;2023-04-19T15:23:44;27.17;;;20.27;;
43646;SDS011;56152;49.996;18.980;2023-04-19T15:28:45;24.98;;;18.25;;
43646;SDS011;56152;49.996;18.980;2023-04-19T15:33:47;22.75;;;17.40;;
43646;SDS011;56152;49.996;18.980;2023-04-19T15:38:51;37.47;;;28.65;;
43646;SDS011;56152;49.996;18.980;2023-04-19T15:43:56;29.33;;;22.60;;
43646;SDS011;56152;49.996;18.980;2023-04-19T15:48:58;35.78;;;24.05;;
43646;SDS011;56152;49.996;18.980;2023-04-19T15:54:06;27.92;;;21.45;;
43646;SDS011;56152;49.996;18.980;2023-04-19T15:59:11;57.08;;;44.65;;
43646;SDS011;56152;49.996;18.980;2023-04-19T16:04:13;46.67;;;35.40;;
43646;SDS011;56152;49.996;18.980;2023-04-19T16:09:19;48.33;;;35.22;;
43646;SDS011;56152;49.996;18.980;2023-04-19T16:14:22;51.97;;;40.78;;
43646;SDS011;56152;49.996;18.980;2023-04-19T16:19:24;51.97;;;38.70;;
43646;SDS011;56152;49.996;18.980;2023-04-19T16:24:34;34.95;;;25.88;;
43646;SDS011;56152;49.996;18.980;2023-04-19T16:29:36;55.58;;;37.50;;
43646;SDS011;56152;49.996;18.980;2023-04-19T16:34:38;39.97;;;30.70;;
43646;SDS011;56152;49.996;18.980;2023-04-19T16:39:43;46.15;;;33.55;;
43646;SDS011;56152;49.996;18.980;2023-04-19T16:44:45;50.05;;;34.50;;
43646;SDS011;56152;49.996;18.980;2023-04-19T16:49:48;80.82;;;44.28;;
43646;SDS011;56152;49.996;18.980;2023-04-19T16:54:52;81.60;;;43.10;;
43646;SDS011;56152;49.996;18.980;2023-04-19T16:59:54;60.78;;;36.35;;
43646;SDS011;56152;49.996;18.980;2023-04-19T17:04:58;59.45;;;42.15;;
43646;SDS011;56152;49.996;18.980;2023-04-19T17:10:02;64.30;;;42.10;;
43646;SDS011;56152;49.996;18.980;2023-04-19T17:15:04;68.20;;;43.38;;
43646;SDS011;56152;49.996;18.980;2023-04-19T17:20:08;50.60;;;31.88;;
43646;SDS011;56152;49.996;18.980;2023-04-19T17:25:13;48.63;;;33.70;;
43646;SDS011;56152;49.996;18.980;2023-04-19T17:30:18;42.20;;;31.63;;
43646;SDS011;56152;49.996;18.980;2023-04-19T17:35:22;41.08;;;31.35;;
43646;SDS011;56152;49.996;18.980;2023-04-19T17:40:30;40.17;;;29.50;;
43646;SDS011;56152;49.996;18.980;2023-04-19T17:45:32;46.22;;;33.60;;
43646;SDS011;56152;49.996;18.980;2023-04-19T17:50:35;45.35;;;34.33;;
43646;SDS011;56152;49.996;18.980;2023-04-19T17:55:40;58.78;;;33.90;;
43646;SDS011;56152;49.996;18.980;2023-04-19T18:00:42;49.58;;;30.73;;
43646;SDS011;56152;49.996;18.980;2023-04-19T18:05:48;41.03;;;32.95;;
43646;SDS011;56152;49.996;18.980;2023-04-19T18:10:52;52.30;;;35.70;;
43646;SDS011;56152;49.996;18.980;2023-04-19T18:15:54;34.00;;;25.17;;
43646;SDS011;56152;49.996;18.980;2023-04-19T18:20:56;36.25;;;27.45;;
43646;SDS011;56152;49.996;18.980;2023-04-19T18:26:02;48.33;;;37.55;;
43646;SDS011;56152;49.996;18.980;2023-04-19T18:31:05;53.60;;;39.17;;
43646;SDS011;56152;49.996;18.980;2023-04-19T18:36:09;38.67;;;29.02;;
43646;SDS011;56152;49.996;18.980;2023-04-19T18:41:12;46.55;;;31.40;;
43646;SDS011;56152;49.996;18.980;2023-04-19T18:46:15;44.63;;;29.58;;
43646;SDS011;56152;49.996;18.980;2023-04-19T18:51:17;48.63;;;34.70;;
43646;SDS011;56152;49.996;18.980;2023-04-19T18:56:22;50.90;;;34.97;;
43646;SDS011;56152;49.996;18.980;2023-04-19T19:01:24;59.10;;;46.05;;
43646;SDS011;56152;49.996;18.980;2023-04-19T19:06:27;60.42;;;41.10;;
43646;SDS011;56152;49.996;18.980;2023-04-19T19:11:32;61.95;;;39.20;;
43646;SDS011;56152;49.996;18.980;2023-04-19T19:16:34;63.67;;;42.67;;
43646;SDS011;56152;49.996;18.980;2023-04-19T19:21:37;69.18;;;44.17;;
43646;SDS011;56152;49.996;18.980;2023-04-19T19:26:41;52.53;;;37.15;;
43646;SDS011;56152;49.996;18.980;2023-04-19T19:31:44;66.63;;;46.10;;
43646;SDS011;56152;49.996;18.980;2023-04-19T19:36:46;54.05;;;38.35;;
43646;SDS011;56152;49.996;18.980;2023-04-19T19:41:50;81.53;;;55.60;;
43646;SDS011;56152;49.996;18.980;2023-04-19T19:46:52;74.95;;;48.22;;
43646;SDS011;56152;49.996;18.980;2023-04-19T19:51:55;61.40;;;39.63;;
43646;SDS011;56152;49.996;18.980;2023-04-19T19:56:59;48.35;;;33.63;;
43646;SDS011;56152;49.996;18.980;2023-04-19T20:02:02;55.90;;;37.78;;
43646;SDS011;56152;49.996;18.980;2023-04-19T20:07:05;64.13;;;43.38;;
43646;SDS011;56152;49.996;18.980;2023-04-19T20:12:11;83.25;;;63.70;;
43646;SDS011;56152;49.996;18.980;2023-04-19T20:17:13;58.88;;;40.45;;
43646;SDS011;56152;49.996;18.980;2023-04-19T20:22:16;60.50;;;37.58;;
43646;SDS011;56152;49.996;18.980;2023-04-19T20:27:23;57.83;;;39.13;;
43646;SDS011;56152;49.996;18.980;2023-04-19T20:32:25;58.95;;;39.28;;
43646;SDS011;56152;49.996;18.980;2023-04-19T20:37:27;71.43;;;42.85;;
43646;SDS011;56152;49.996;18.980;2023-04-19T20:42:32;48.03;;;32.33;;
43646;SDS011;56152;49.996;18.980;2023-04-19T20:47:34;51.55;;;34.08;;
43646;SDS011;56152;49.996;18.980;2023-04-19T20:52:37;54.20;;;39.17;;
43646;SDS011;56152;49.996;18.980;2023-04-19T20:57:42;61.10;;;37.63;;
43646;SDS011;56152;49.996;18.980;2023-04-19T21:02:46;83.35;;;53.58;;
43646;SDS011;56152;49.996;18.980;2023-04-19T21:12:59;56.45;;;39.63;;
43646;SDS011;56152;49.996;18.980;2023-04-19T21:18:06;70.38;;;44.45;;
43646;SDS011;56152;49.996;18.980;2023-04-19T21:23:08;76.90;;;47.25;;
43646;SDS011;56152;49.996;18.980;2023-04-19T21:28:12;83.20;;;48.97;;
43646;SDS011;56152;49.996;18.980;2023-04-19T21:33:14;54.72;;;35.90;;
43646;SDS011;56152;49.996;18.980;2023-04-19T21:38:22;66.82;;;39.33;;
43646;SDS011;56152;49.996;18.980;2023-04-19T21:43:49;63.40;;;39.58;;
43646;SDS011;56152;49.996;18.980;2023-04-19T21:48:59;60.75;;;42.00;;
43646;SDS011;56152;49.996;18.980;2023-04-19T21:54:00;74.75;;;43.17;;
43646;SDS011;56152;49.996;18.980;2023-04-19T21:59:04;62.63;;;40.50;;
43646;SDS011;56152;49.996;18.980;2023-04-19T22:04:06;72.85;;;45.10;;
43646;SDS011;56152;49.996;18.980;2023-04-19T22:09:10;78.57;;;43.60;;
43646;SDS011;56152;49.996;18.980;2023-04-19T22:14:19;67.97;;;41.58;;
43646;SDS011;56152;49.996;18.980;2023-04-19T22:19:22;67.78;;;42.20;;
43646;SDS011;56152;49.996;18.980;2023-04-19T22:29:46;62.37;;;37.73;;
43646;SDS011;56152;49.996;18.980;2023-04-19T22:34:47;68.03;;;42.80;;
43646;SDS011;56152;49.996;18.980;2023-04-19T22:39:57;59.03;;;37.28;;
43646;SDS011;56152;49.996;18.980;2023-04-19T22:45:03;66.63;;;39.88;;
43646;SDS011;56152;49.996;18.980;2023-04-19T22:50:07;69.32;;;43.58;;
43646;SDS011;56152;49.996;18.980;2023-04-19T22:55:11;81.78;;;45.70;;
43646;SDS011;56152;49.996;18.980;2023-04-19T23:05:22;74.30;;;45.67;;
43646;SDS011;56152;49.996;18.980;2023-04-19T23:10:25;78.28;;;46.20;;
43646;SDS011;56152;49.996;18.980;2023-04-19T23:15:29;82.38;;;49.17;;
43646;SDS011;56152;49.996;18.980;2023-04-19T23:20:32;94.88;;;55.15;;
43646;SDS011;56152;49.996;18.980;2023-04-19T23:25:34;69.63;;;42.67;;
43646;SDS011;56152;49.996;18.980;2023-04-19T23:30:37;89.68;;;54.30;;
43646;SDS011;56152;49.996;18.980;2023-04-19T23:35:39;87.20;;;48.47;;
43646;SDS011;56152;49.996;18.980;2023-04-19T23:40:44;75.60;;;45.92;;
43646;SDS011;56152;49.996;18.980;2023-04-19T23:45:48;67.10;;;42.50;;
43646;SDS011;56152;49.996;18.980;2023-04-19T23:50:51;64.50;;;41.05;;
43646;SDS011;56152;49.996;18.980;2023-04-19T23:55:57;63.90;;;41.72;;
